Time,TemperatureF,DewpointF,PressureIn,WindDirection,WindDirectionDegrees,WindSpeedMPH,WindSpeedGustMPH,Humidity,HourlyPrecipIn,Conditions,Clouds,dailyrainin,SoftwareType,DateUTC
2013-03-01 00:14:00,36.3,30.0,30.11,SW,221,1.0,7.0,78,0.00,,,0.00,weatherlink.com 1.10,2013-03-01 06:14:00,
2013-03-01 00:29:00,36.1,30.0,30.11,North,356,4.0,10.0,78,0.00,,,0.00,weatherlink.com 1.10,2013-03-01 06:29:00,
2013-03-01 00:44:00,35.9,29.0,30.12,NNW,339,2.0,5.0,77,0.00,,,0.00,weatherlink.com 1.10,2013-03-01 06:44:00,
2013-03-01 00:59:00,35.8,29.0,30.12,NNE,32,3.0,7.0,77,0.00,,,0.00,weatherlink.com 1.10,2013-03-01 06:59:00,
2013-03-01 01:15:00,35.7,29.0,30.12,NE,47,1.0,7.0,76,0.00,,,0.00,weatherlink.com 1.10,2013-03-01 07:15:00,
2013-03-01 01:30:00,35.6,28.0,30.12,North,358,3.0,6.0,75,0.00,,,0.00,weatherlink.com 1.10,2013-03-01 07:30:00,
2013-03-01 01:45:00,35.5,28.0,30.12,NW,317,0.0,8.0,75,0.00,,,0.00,weatherlink.com 1.10,2013-03-01 07:45:00,
2013-03-01 02:00:00,35.5,28.0,30.12,NNE,15,4.0,11.0,74,0.00,,,0.00,weatherlink.com 1.10,2013-03-01 08:00:00,
2013-03-01 02:15:00,35.4,28.0,30.12,NE,51,0.0,11.0,74,0.00,,,0.00,weatherlink.com 1.10,2013-03-01 08:15:00,
2013-03-01 02:30:00,35.3,28.0,30.11,NNE,27,6.0,8.0,75,0.00,,,0.00,weatherlink.com 1.10,2013-03-01 08:30:00,
2013-03-01 02:45:00,35.3,28.0,30.11,WSW,238,2.0,5.0,75,0.00,,,0.00,weatherlink.com 1.10,2013-03-01 08:45:00,
2013-03-01 03:00:00,35.1,28.0,30.11,North,11,6.0,10.0,75,0.00,,,0.00,weatherlink.com 1.10,2013-03-01 09:00:00,
2013-03-01 03:15:00,35.0,28.0,30.11,NNE,22,9.0,10.0,76,0.00,,,0.00,weatherlink.com 1.10,2013-03-01 09:15:00,
2013-03-01 03:30:00,34.9,28.0,30.11,NNW,343,3.0,8.0,76,0.00,,,0.00,weatherlink.com 1.10,2013-03-01 09:30:00,
2013-03-01 03:45:00,34.8,28.0,30.11,NNE,28,0.0,9.0,77,0.00,,,0.00,weatherlink.com 1.10,2013-03-01 09:45:00,
2013-03-01 04:00:00,34.8,29.0,30.11,North,5,3.0,6.0,78,0.00,,,0.00,weatherlink.com 1.10,2013-03-01 10:00:00,
2013-03-01 04:15:00,34.8,29.0,30.11,NE,53,0.0,5.0,78,0.00,,,0.00,weatherlink.com 1.10,2013-03-01 10:15:00,
2013-03-01 04:30:00,34.8,29.0,30.11,North,356,1.0,6.0,78,0.00,,,0.00,weatherlink.com 1.10,2013-03-01 10:30:00,
2013-03-01 04:45:00,34.8,29.0,30.11,WSW,238,0.0,3.0,79,0.00,,,0.00,weatherlink.com 1.10,2013-03-01 10:45:00,
2013-03-01 05:00:00,34.8,29.0,30.11,WNW,290,0.0,2.0,79,0.00,,,0.00,weatherlink.com 1.10,2013-03-01 11:00:00,
2013-03-01 05:15:00,34.8,29.0,30.11,WNW,295,0.0,5.0,79,0.00,,,0.00,weatherlink.com 1.10,2013-03-01 11:15:00,
2013-03-01 05:30:00,34.8,29.0,30.11,NNE,30,1.0,5.0,79,0.00,,,0.00,weatherlink.com 1.10,2013-03-01 11:30:00,
2013-03-01 05:45:00,34.8,29.0,30.11,NNE,32,1.0,6.0,79,0.00,,,0.00,weatherlink.com 1.10,2013-03-01 11:45:00,
2013-03-01 06:00:00,34.8,29.0,30.12,NNW,327,1.0,3.0,80,0.00,,,0.00,weatherlink.com 1.10,2013-03-01 12:00:00,
2013-03-01 06:15:00,34.8,29.0,30.12,NE,37,2.0,5.0,79,0.00,,,0.00,weatherlink.com 1.10,2013-03-01 12:15:00,
2013-03-01 06:30:00,34.7,29.0,30.12,NE,54,0.0,7.0,79,0.00,,,0.00,weatherlink.com 1.10,2013-03-01 12:30:00,
2013-03-01 06:45:00,34.7,29.0,30.13,North,11,3.0,5.0,80,0.00,,,0.00,weatherlink.com 1.10,2013-03-01 12:45:00,
2013-03-01 07:00:00,34.6,29.0,30.12,WSW,242,1.0,5.0,79,0.00,,,0.00,weatherlink.com 1.10,2013-03-01 13:00:00,
2013-03-01 07:15:00,34.6,29.0,30.13,NNE,24,3.0,5.0,79,0.00,,,0.00,weatherlink.com 1.10,2013-03-01 13:15:00,
2013-03-01 07:30:00,34.7,29.0,30.13,NNW,331,1.0,6.0,79,0.00,,,0.00,weatherlink.com 1.10,2013-03-01 13:30:00,
2013-03-01 07:45:00,34.8,29.0,30.14,NW,319,0.0,6.0,78,0.00,,,0.00,weatherlink.com 1.10,2013-03-01 13:45:00,
2013-03-01 08:00:00,35.1,29.0,30.14,West,274,1.0,5.0,78,0.00,,,0.00,weatherlink.com 1.10,2013-03-01 14:00:00,
2013-03-01 08:15:00,35.2,29.0,30.14,WSW,257,1.0,5.0,78,0.00,,,0.00,weatherlink.com 1.10,2013-03-01 14:15:00,
2013-03-01 08:30:00,35.3,29.0,30.14,NNE,15,8.0,8.0,77,0.00,,,0.00,weatherlink.com 1.10,2013-03-01 14:30:00,
2013-03-01 08:45:00,35.4,29.0,30.15,NNE,13,2.0,5.0,78,0.00,,,0.00,weatherlink.com 1.10,2013-03-01 14:45:00,
2013-03-01 09:00:00,35.5,29.0,30.15,WSW,253,0.0,8.0,77,0.00,,,0.00,weatherlink.com 1.10,2013-03-01 15:00:00,
2013-03-01 09:15:00,35.6,29.0,30.15,North,10,1.0,6.0,77,0.00,,,0.00,weatherlink.com 1.10,2013-03-01 15:15:00,
2013-03-01 09:31:00,35.8,29.0,30.15,NNW,327,4.0,5.0,77,0.00,,,0.00,weatherlink.com 1.10,2013-03-01 15:31:00,
2013-03-01 09:45:00,35.9,29.0,30.16,NE,34,1.0,4.0,77,0.00,,,0.00,weatherlink.com 1.10,2013-03-01 15:45:00,
2013-03-01 10:00:00,36.3,30.0,30.16,NNE,15,0.0,4.0,77,0.00,,,0.00,weatherlink.com 1.10,2013-03-01 16:00:00,
2013-03-01 10:15:00,36.6,29.0,30.16,West,260,1.0,5.0,75,0.00,,,0.00,weatherlink.com 1.10,2013-03-01 16:15:00,
2013-03-01 10:30:00,36.0,29.0,30.16,North,4,4.0,8.0,76,0.00,,,0.00,weatherlink.com 1.10,2013-03-01 16:30:00,
2013-03-01 10:45:00,36.0,29.0,30.16,NE,37,3.0,7.0,77,0.00,,,0.00,weatherlink.com 1.10,2013-03-01 16:45:00,
2013-03-01 11:00:00,36.1,29.0,30.16,WSW,246,4.0,4.0,75,0.00,,,0.00,weatherlink.com 1.10,2013-03-01 17:00:00,
2013-03-01 11:15:00,36.6,29.0,30.16,North,356,1.0,5.0,73,0.00,,,0.00,weatherlink.com 1.10,2013-03-01 17:15:00,
2013-03-01 11:30:00,37.0,29.0,30.15,NNE,16,1.0,8.0,72,0.00,,,0.00,weatherlink.com 1.10,2013-03-01 17:30:00,
2013-03-01 11:45:00,37.4,28.0,30.15,West,280,1.0,7.0,70,0.00,,,0.00,weatherlink.com 1.10,2013-03-01 17:45:00,
2013-03-01 12:00:00,37.5,29.0,30.15,NW,312,0.0,5.0,71,0.00,,,0.00,weatherlink.com 1.10,2013-03-01 18:00:00,
2013-03-01 12:15:00,38.0,29.0,30.14,SW,228,3.0,7.0,69,0.00,,,0.00,weatherlink.com 1.10,2013-03-01 18:15:00,
2013-03-01 12:30:00,38.1,29.0,30.14,WSW,238,1.0,5.0,69,0.00,,,0.00,weatherlink.com 1.10,2013-03-01 18:30:00,
2013-03-01 12:45:00,37.8,28.0,30.14,SW,221,0.0,8.0,69,0.00,,,0.00,weatherlink.com 1.10,2013-03-01 18:45:00,
2013-03-01 13:01:00,37.7,29.0,30.13,West,274,3.0,8.0,70,0.00,,,0.00,weatherlink.com 1.10,2013-03-01 19:01:00,
2013-03-01 13:16:00,37.5,29.0,30.13,North,349,1.0,6.0,71,0.00,,,0.00,weatherlink.com 1.10,2013-03-01 19:16:00,
2013-03-01 13:31:00,37.0,28.0,30.12,NNE,16,4.0,9.0,71,0.00,,,0.00,weatherlink.com 1.10,2013-03-01 19:31:00,
2013-03-01 13:46:00,37.1,28.0,30.12,WNW,291,2.0,7.0,71,0.00,,,0.00,weatherlink.com 1.10,2013-03-01 19:46:00,
2013-03-01 14:01:00,37.3,29.0,30.12,ENE,57,3.0,7.0,72,0.00,,,0.00,weatherlink.com 1.10,2013-03-01 20:01:00,
2013-03-01 14:16:00,37.6,29.0,30.12,NNW,330,4.0,7.0,72,0.00,,,0.00,weatherlink.com 1.10,2013-03-01 20:16:00,
2013-03-01 14:31:00,37.5,29.0,30.12,NNE,22,2.0,6.0,70,0.00,,,0.00,weatherlink.com 1.10,2013-03-01 20:31:00,
2013-03-01 14:46:00,37.3,29.0,30.12,West,263,2.0,9.0,71,0.00,,,0.00,weatherlink.com 1.10,2013-03-01 20:46:00,
2013-03-01 15:01:00,37.1,29.0,30.12,WSW,239,4.0,9.0,72,0.00,,,0.00,weatherlink.com 1.10,2013-03-01 21:01:00,
2013-03-01 15:16:00,36.5,29.0,30.12,SW,225,2.0,6.0,75,0.00,,,0.00,weatherlink.com 1.10,2013-03-01 21:16:00,
2013-03-01 15:31:00,36.8,30.0,30.12,WSW,257,2.0,5.0,75,0.00,,,0.00,weatherlink.com 1.10,2013-03-01 21:31:00,
2013-03-01 15:46:00,36.6,29.0,30.12,NNW,330,2.0,8.0,75,0.00,,,0.00,weatherlink.com 1.10,2013-03-01 21:46:00,
2013-03-01 16:01:00,36.5,29.0,30.12,ESE,108,2.0,8.0,75,0.00,,,0.00,weatherlink.com 1.10,2013-03-01 22:01:00,
2013-03-01 16:16:00,36.5,29.0,30.12,WSW,253,2.0,8.0,73,0.00,,,0.00,weatherlink.com 1.10,2013-03-01 22:16:00,
2013-03-01 16:31:00,36.2,29.0,30.12,WSW,257,1.0,6.0,75,0.00,,,0.00,weatherlink.com 1.10,2013-03-01 22:31:00,
2013-03-01 16:46:00,36.3,29.0,30.13,NE,37,1.0,7.0,74,0.00,,,0.00,weatherlink.com 1.10,2013-03-01 22:46:00,
2013-03-01 17:01:00,36.4,29.0,30.14,WSW,253,0.0,6.0,74,0.00,,,0.00,weatherlink.com 1.10,2013-03-01 23:01:00,
2013-03-01 17:16:00,35.8,29.0,30.14,NW,311,0.0,6.0,77,0.00,,,0.00,weatherlink.com 1.10,2013-03-01 23:16:00,
2013-03-01 17:31:00,35.6,30.0,30.14,West,267,0.0,8.0,79,0.00,,,0.00,weatherlink.com 1.10,2013-03-01 23:31:00,
2013-03-01 17:46:00,35.3,29.0,30.15,West,273,2.0,7.0,78,0.00,,,0.00,weatherlink.com 1.10,2013-03-01 23:46:00,
2013-03-01 18:01:00,35.3,29.0,30.16,SW,231,1.0,5.0,79,0.00,,,0.00,weatherlink.com 1.10,2013-03-02 00:01:00,
2013-03-01 18:16:00,35.2,30.0,30.16,WSW,253,3.0,7.0,80,0.00,,,0.00,weatherlink.com 1.10,2013-03-02 00:16:00,
2013-03-01 18:31:00,34.9,30.0,30.16,West,280,1.0,8.0,83,0.00,,,0.00,weatherlink.com 1.10,2013-03-02 00:31:00,
2013-03-01 18:46:00,34.8,30.0,30.17,NNE,18,3.0,5.0,81,0.00,,,0.00,weatherlink.com 1.10,2013-03-02 00:46:00,
2013-03-01 19:01:00,34.9,29.0,30.17,SSW,200,0.0,5.0,79,0.00,,,0.00,weatherlink.com 1.10,2013-03-02 01:01:00,
2013-03-01 19:16:00,35.1,29.0,30.17,WNW,299,0.0,5.0,77,0.00,,,0.00,weatherlink.com 1.10,2013-03-02 01:16:00,
2013-03-01 19:31:00,35.2,28.0,30.17,NE,42,2.0,7.0,76,0.00,,,0.00,weatherlink.com 1.10,2013-03-02 01:31:00,
2013-03-01 19:46:00,35.3,28.0,30.17,NNW,335,1.0,5.0,75,0.00,,,0.00,weatherlink.com 1.10,2013-03-02 01:46:00,
2013-03-01 20:01:00,35.3,28.0,30.17,SW,233,1.0,7.0,74,0.00,,,0.00,weatherlink.com 1.10,2013-03-02 02:01:00,
2013-03-01 20:16:00,35.5,27.0,30.17,NNE,32,1.0,7.0,70,0.00,,,0.00,weatherlink.com 1.10,2013-03-02 02:16:00,
2013-03-01 20:31:00,35.4,27.0,30.17,ENE,69,2.0,6.0,71,0.00,,,0.00,weatherlink.com 1.10,2013-03-02 02:31:00,
2013-03-01 20:46:00,35.2,26.0,30.17,NE,36,4.0,8.0,70,0.00,,,0.00,weatherlink.com 1.10,2013-03-02 02:46:00,
2013-03-01 21:01:00,35.2,27.0,30.17,SSW,198,2.0,6.0,71,0.00,,,0.00,weatherlink.com 1.10,2013-03-02 03:01:00,
2013-03-01 21:16:00,35.1,27.0,30.17,WSW,245,1.0,7.0,71,0.00,,,0.00,weatherlink.com 1.10,2013-03-02 03:16:00,
2013-03-01 21:31:00,35.1,27.0,30.18,SSW,205,0.0,6.0,72,0.00,,,0.00,weatherlink.com 1.10,2013-03-02 03:31:00,
2013-03-01 21:46:00,34.8,27.0,30.18,North,6,6.0,14.0,73,0.00,,,0.00,weatherlink.com 1.10,2013-03-02 03:46:00,
2013-03-01 22:01:00,34.5,27.0,30.18,NE,51,2.0,8.0,73,0.00,,,0.00,weatherlink.com 1.10,2013-03-02 04:01:00,
2013-03-01 22:16:00,34.4,27.0,30.18,WNW,297,1.0,6.0,74,0.00,,,0.00,weatherlink.com 1.10,2013-03-02 04:16:00,
2013-03-01 22:31:00,34.3,27.0,30.18,NE,34,2.0,8.0,75,0.00,,,0.00,weatherlink.com 1.10,2013-03-02 04:31:00,
2013-03-01 22:46:00,34.1,28.0,30.18,NW,326,2.0,8.0,77,0.00,,,0.00,weatherlink.com 1.10,2013-03-02 04:46:00,
2013-03-01 23:01:00,33.9,28.0,30.18,North,353,1.0,8.0,78,0.00,,,0.00,weatherlink.com 1.10,2013-03-02 05:01:00,
2013-03-01 23:16:00,33.7,28.0,30.18,NNW,340,1.0,7.0,79,0.00,,,0.00,weatherlink.com 1.10,2013-03-02 05:16:00,
2013-03-01 23:31:00,33.6,28.0,30.18,West,264,0.0,4.0,80,0.00,,,0.00,weatherlink.com 1.10,2013-03-02 05:31:00,
2013-03-01 23:46:00,33.3,28.0,30.17,WNW,286,1.0,7.0,81,0.00,,,0.00,weatherlink.com 1.10,2013-03-02 05:46:00,